Time;durP1;ratioP1;P1;durP2;ratioP2;P2;SDS_P1;SDS_P2;PMS_P1;PMS_P2;Temp;Humidity;BMP_temperature;BMP_pressure;BME280_temperature;BME280_humidity;BME280_pressure;Samples;Min_cycle;Max_cycle;Signal;HPM_P1;HPM_P2
2024/04/04 04:06:32;;;;;;;0.30;0.30;;;12.60;99.90;;;;;;5531490;23;20838;-60
2024/04/04 04:08:57;;;;;;;0.30;0.30;;;12.50;99.90;;;;;;4920006;29;20403;-63
2024/04/04 04:11:23;;;;;;;0.40;0.40;;;12.50;99.90;;;;;;4919777;29;20237;-61
2024/04/04 04:13:49;;;;;;;0.30;0.30;;;12.40;99.90;;;;;;4920112;29;20177;-61
2024/04/04 04:16:14;;;;;;;0.30;0.30;;;12.40;99.90;;;;;;4911569;29;20557;-62
2024/04/04 04:18:41;;;;;;;0.30;0.30;;;12.30;99.90;;;;;;4901110;29;20432;-60
2024/04/04 04:21:21;;;;;;;1.50;1.27;;;12.30;99.90;;;;;;4901017;29;20189;-62
2024/04/04 04:23:54;;;;;;;0.40;0.40;;;12.40;99.90;;;;;;4901129;29;20421;-62
2024/04/04 04:26:20;;;;;;;0.40;0.40;;;12.40;99.90;;;;;;4900428;29;20433;-62
2024/04/04 04:28:46;;;;;;;0.30;0.30;;;12.40;99.90;;;;;;4900858;29;20514;-60
2024/04/04 04:31:22;;;;;;;0.37;0.37;;;12.50;99.90;;;;;;4900889;29;20482;-62
2024/04/04 04:33:48;;;;;;;0.30;0.30;;;12.50;99.90;;;;;;4900908;29;20183;-61
2024/04/04 04:36:13;;;;;;;0.30;0.30;;;12.40;99.90;;;;;;4899131;29;20991;-62
2024/04/04 04:38:39;;;;;;;0.30;0.30;;;12.40;99.90;;;;;;4900548;29;20270;-61
2024/04/04 04:41:05;;;;;;;0.33;0.33;;;12.40;99.90;;;;;;4900746;29;20226;-62
2024/04/04 04:43:30;;;;;;;0.40;0.40;;;12.50;99.90;;;;;;4900228;29;20250;-62
2024/04/04 04:45:56;;;;;;;0.30;0.30;;;12.50;99.90;;;;;;4900038;29;20240;-62
2024/04/04 04:48:21;;;;;;;0.30;0.30;;;12.50;99.90;;;;;;4900586;29;20185;-62
2024/04/04 04:50:48;;;;;;;0.33;0.33;;;12.40;99.90;;;;;;4900364;29;20260;-61
2024/04/04 04:53:13;;;;;;;0.30;0.30;;;12.40;99.90;;;;;;4900405;29;20186;-61
2024/04/04 04:55:39;;;;;;;0.30;0.30;;;12.40;99.90;;;;;;4899646;29;20504;-62
2024/04/04 04:58:05;;;;;;;0.30;0.30;;;12.40;99.90;;;;;;4900413;29;20212;-62
2024/04/04 05:00:31;;;;;;;0.30;0.27;;;12.30;99.90;;;;;;4900033;29;20178;-61
2024/04/04 05:02:57;;;;;;;0.30;0.30;;;12.30;99.90;;;;;;4900115;29;20193;-61
2024/04/04 05:05:22;;;;;;;0.50;0.50;;;12.30;99.90;;;;;;4900042;29;20496;-61
2024/04/04 05:07:48;;;;;;;6.17;1.03;;;12.20;99.90;;;;;;4900078;29;20241;-63
2024/04/04 05:10:14;;;;;;;0.30;0.30;;;12.20;99.90;;;;;;4900106;29;20182;-62
2024/04/04 05:12:39;;;;;;;0.30;0.30;;;12.20;99.90;;;;;;4895819;29;20185;-62
2024/04/04 05:15:08;;;;;;;0.37;0.37;;;12.10;99.90;;;;;;4888243;29;20231;-62
2024/04/04 05:17:34;;;;;;;0.40;0.40;;;12.10;99.90;;;;;;4880984;29;20216;-60
2024/04/04 05:20:00;;;;;;;0.30;0.30;;;12.10;99.90;;;;;;4898461;29;20465;-62
2024/04/04 05:22:29;;;;;;;0.30;0.30;;;12.10;99.90;;;;;;4899788;29;20232;-61
2024/04/04 05:24:56;;;;;;;0.30;0.30;;;12.10;99.90;;;;;;4893951;29;20422;-60
2024/04/04 05:27:22;;;;;;;0.30;0.30;;;12.20;99.90;;;;;;4889211;29;20489;-63
2024/04/04 05:29:51;;;;;;;0.60;0.60;;;12.20;99.90;;;;;;4897447;29;20404;-61
2024/04/04 05:32:17;;;;;;;0.30;0.30;;;12.20;99.90;;;;;;4898798;29;20513;-63
2024/04/04 05:34:42;;;;;;;0.30;0.30;;;12.20;99.90;;;;;;4892427;29;20487;-62
2024/04/04 05:37:08;;;;;;;0.30;0.30;;;12.20;99.90;;;;;;4880618;29;20220;-60
2024/04/04 05:39:34;;;;;;;0.30;0.30;;;12.30;99.90;;;;;;4880554;29;20553;-61
2024/04/04 05:41:59;;;;;;;0.30;0.30;;;12.30;99.90;;;;;;4880813;29;20414;-62
2024/04/04 05:44:25;;;;;;;0.57;0.57;;;12.30;99.90;;;;;;4886423;29;20193;-62
2024/04/04 05:46:51;;;;;;;0.50;0.50;;;12.40;99.90;;;;;;4883610;29;20716;-60
2024/04/04 05:49:16;;;;;;;0.30;0.30;;;12.40;99.90;;;;;;4880786;29;20190;-62
2024/04/04 05:51:42;;;;;;;0.30;0.30;;;12.50;99.90;;;;;;4881250;29;20277;-62
2024/04/04 05:54:07;;;;;;;0.60;0.60;;;12.60;99.90;;;;;;4899318;29;20182;-62
2024/04/04 05:56:33;;;;;;;0.30;0.30;;;12.70;99.90;;;;;;4890211;29;20217;-61
2024/04/04 05:58:59;;;;;;;0.30;0.30;;;12.80;99.90;;;;;;4880680;29;20303;-61
2024/04/04 06:01:24;;;;;;;0.30;0.30;;;12.90;99.90;;;;;;4881071;29;20641;-62
2024/04/04 06:03:50;;;;;;;0.30;0.30;;;13.00;99.90;;;;;;4879258;29;20175;-62
2024/04/04 06:06:16;;;;;;;0.30;0.20;;;13.00;99.90;;;;;;4898596;29;20201;-61
2024/04/04 06:08:41;;;;;;;0.30;0.30;;;13.10;99.90;;;;;;4897296;29;20685;-60
2024/04/04 06:11:07;;;;;;;0.40;0.40;;;13.10;99.90;;;;;;4897948;29;20431;-62
2024/04/04 06:13:32;;;;;;;0.30;0.30;;;13.20;99.90;;;;;;4896944;29;20683;-62
2024/04/04 06:16:02;;;;;;;0.30;0.30;;;13.30;99.90;;;;;;4884815;29;20231;-62
2024/04/04 06:18:28;;;;;;;0.30;0.20;;;13.80;99.90;;;;;;4882680;29;20191;-65
2024/04/04 06:20:54;;;;;;;0.30;0.30;;;14.40;99.90;;;;;;4892927;29;20505;-61
2024/04/04 06:23:19;;;;;;;0.40;0.40;;;15.00;99.90;;;;;;4891260;29;20489;-60
2024/04/04 06:25:45;;;;;;;0.30;0.30;;;15.60;99.90;;;;;;4880786;29;20614;-62
2024/04/04 06:28:10;;;;;;;0.30;0.30;;;16.10;99.90;;;;;;4884896;29;20266;-63
2024/04/04 06:30:36;;;;;;;0.30;0.30;;;16.50;99.90;;;;;;4889042;29;20670;-62
2024/04/04 06:33:02;;;;;;;0.30;0.20;;;16.60;99.90;;;;;;4880069;29;20235;-62
2024/04/04 06:35:27;;;;;;;0.30;0.20;;;16.50;99.90;;;;;;4879362;29;20588;-62
2024/04/04 06:37:53;;;;;;;0.40;0.40;;;16.30;99.90;;;;;;4880378;29;20573;-62
2024/04/04 06:40:18;;;;;;;0.40;0.40;;;16.30;99.90;;;;;;4889388;29;20669;-63
2024/04/04 06:42:45;;;;;;;0.30;0.30;;;16.40;99.90;;;;;;4881881;29;20176;-62
2024/04/04 06:45:11;;;;;;;0.30;0.30;;;16.70;99.90;;;;;;4879725;29;20179;-63
2024/04/04 06:47:41;;;;;;;0.40;0.33;;;17.20;99.90;;;;;;4898055;29;20410;-63
2024/04/04 06:50:06;;;;;;;0.30;0.20;;;17.60;99.90;;;;;;4884418;29;20192;-63
2024/04/04 06:52:32;;;;;;;0.30;0.20;;;18.00;99.90;;;;;;4879580;29;20487;-66
2024/04/04 06:54:58;;;;;;;0.30;0.20;;;18.30;99.90;;;;;;4879681;29;20189;-67
2024/04/04 06:57:25;;;;;;;0.30;0.20;;;18.60;99.90;;;;;;4882192;29;20578;-67
2024/04/04 06:59:50;;;;;;;0.30;0.20;;;18.80;99.90;;;;;;4892677;29;20671;-67
2024/04/04 07:02:16;;;;;;;0.30;0.30;;;19.10;99.90;;;;;;4879752;29;20486;-65
2024/04/04 07:04:41;;;;;;;0.30;0.30;;;19.10;99.90;;;;;;4877737;29;20251;-65
2024/04/04 07:07:07;;;;;;;0.30;0.30;;;19.00;99.90;;;;;;4879180;29;20211;-66
2024/04/04 07:09:32;;;;;;;0.30;0.30;;;18.90;99.90;;;;;;4886077;29;20236;-64
2024/04/04 07:11:58;;;;;;;0.30;0.20;;;19.00;99.90;;;;;;4879169;29;20547;-64
2024/04/04 07:14:24;;;;;;;0.30;0.30;;;18.90;99.50;;;;;;4879219;29;20177;-67
2024/04/04 07:16:49;;;;;;;0.30;0.30;;;18.90;99.30;;;;;;4881314;29;20211;-64
2024/04/04 07:19:15;;;;;;;0.30;0.30;;;19.00;99.30;;;;;;4883879;29;20676;-65
2024/04/04 07:21:40;;;;;;;0.30;0.20;;;19.30;99.80;;;;;;4895992;29;20222;-67
2024/04/04 07:24:06;;;;;;;0.40;0.40;;;19.60;98.60;;;;;;4892260;29;20184;-64
2024/04/04 07:26:31;;;;;;;0.30;0.30;;;20.00;98.80;;;;;;4878758;29;20196;-65
2024/04/04 07:28:57;;;;;;;0.30;0.20;;;20.30;97.60;;;;;;4890466;29;20189;-64
2024/04/04 07:31:23;;;;;;;0.30;0.30;;;20.60;97.40;;;;;;4897712;29;20178;-65
2024/04/04 07:33:48;;;;;;;0.30;0.23;;;20.80;96.50;;;;;;4897088;29;20653;-65
2024/04/04 07:36:14;;;;;;;0.30;0.20;;;20.80;95.70;;;;;;4899273;29;20685;-64
2024/04/04 07:38:39;;;;;;;0.30;0.30;;;20.60;96.40;;;;;;4901718;29;20217;-64
2024/04/04 07:41:05;;;;;;;0.30;0.30;;;20.20;96.40;;;;;;4892719;29;20182;-63
2024/04/04 07:43:31;;;;;;;0.93;0.50;;;19.80;96.40;;;;;;4882753;29;20259;-61
2024/04/04 07:45:57;;;;;;;0.30;0.20;;;19.30;96.90;;;;;;4882250;29;20207;-61
2024/04/04 07:48:23;;;;;;;0.30;0.20;;;18.90;97.40;;;;;;4883021;29;20463;-61
2024/04/04 07:50:48;;;;;;;0.30;0.30;;;18.50;98.20;;;;;;4882762;29;20187;-61
2024/04/04 07:53:14;;;;;;;0.30;0.30;;;18.10;98.70;;;;;;4885496;29;20178;-62
2024/04/04 07:55:40;;;;;;;0.30;0.30;;;17.60;99.60;;;;;;4896563;29;20214;-61
2024/04/04 07:58:06;;;;;;;0.30;0.30;;;17.30;99.90;;;;;;4882582;29;20428;-60
2024/04/04 08:00:32;;;;;;;0.40;0.40;;;17.00;99.90;;;;;;4882482;29;20270;-61
2024/04/04 08:03:01;;;;;;;0.30;0.30;;;16.60;99.90;;;;;;4891981;29;20934;-63
2024/04/04 08:05:28;;;;;;;0.30;0.30;;;16.40;99.90;;;;;;4900773;29;20426;-63
2024/04/04 08:07:54;;;;;;;0.30;0.30;;;16.20;99.90;;;;;;4898303;29;20435;-63
2024/04/04 08:10:19;;;;;;;0.30;0.20;;;16.10;99.90;;;;;;4894793;29;20407;-63
2024/04/04 08:12:46;;;;;;;0.30;0.30;;;16.00;99.90;;;;;;4901152;29;20314;-62
2024/04/04 08:15:12;;;;;;;0.30;0.30;;;15.90;99.90;;;;;;4898904;29;20190;-63
2024/04/04 08:17:41;;;;;;;0.40;0.40;;;15.90;99.90;;;;;;4888668;29;20507;-63
2024/04/04 08:20:14;;;;;;;0.30;0.30;;;16.00;99.90;;;;;;4882272;29;20596;-63
2024/04/04 08:22:40;;;;;;;0.30;0.30;;;16.00;99.90;;;;;;4882800;29;20387;-63
2024/04/04 08:25:06;;;;;;;0.30;0.30;;;16.10;99.90;;;;;;4895446;29;20905;-64
2024/04/04 08:27:33;;;;;;;0.30;0.30;;;16.20;99.90;;;;;;4900332;29;20528;-63
2024/04/04 08:29:59;;;;;;;0.30;0.30;;;16.20;99.90;;;;;;4900834;29;20543;-62
2024/04/04 08:32:25;;;;;;;0.30;0.30;;;16.20;99.90;;;;;;4900670;29;20448;-63
2024/04/04 08:34:51;;;;;;;0.30;0.30;;;16.10;99.90;;;;;;4898438;29;20424;-63
2024/04/04 08:37:16;;;;;;;0.30;0.30;;;16.10;99.90;;;;;;4900091;29;20210;-63
2024/04/04 08:39:42;;;;;;;0.30;0.30;;;16.00;99.90;;;;;;4889683;29;20214;-63
2024/04/04 08:42:08;;;;;;;0.30;0.30;;;16.00;99.90;;;;;;4882109;29;20274;-62
2024/04/04 08:44:34;;;;;;;0.30;0.30;;;15.90;99.90;;;;;;4891617;29;20672;-62
2024/04/04 08:47:00;;;;;;;0.30;0.30;;;15.90;99.90;;;;;;4897194;29;20665;-63
2024/04/04 08:49:27;;;;;;;0.30;0.20;;;15.80;99.90;;;;;;4888266;29;20191;-63
2024/04/04 08:51:53;;;;;;;0.30;0.30;;;15.80;99.90;;;;;;4881842;29;20478;-62
2024/04/04 08:54:21;;;;;;;0.30;0.30;;;15.80;99.90;;;;;;4887131;29;20586;-63
2024/04/04 08:56:47;;;;;;;0.30;0.30;;;15.70;99.90;;;;;;4898324;29;20804;-63
2024/04/04 08:59:12;;;;;;;0.30;0.30;;;15.70;99.90;;;;;;4900421;29;20494;-63
2024/04/04 09:01:38;;;;;;;0.30;0.30;;;15.70;99.90;;;;;;4900336;29;20458;-63
2024/04/04 09:04:04;;;;;;;0.30;0.30;;;15.60;99.90;;;;;;4892089;29;20640;-63
2024/04/04 09:06:30;;;;;;;0.30;0.30;;;15.60;99.90;;;;;;4894234;29;20253;-64
2024/04/04 09:08:57;;;;;;;0.30;0.30;;;15.60;99.90;;;;;;4900143;29;20181;-62
2024/04/04 09:11:27;;;;;;;0.30;0.30;;;15.60;99.90;;;;;;4899959;29;20418;-64
2024/04/04 09:14:10;;;;;;;0.30;0.30;;;15.60;99.90;;;;;;4899959;29;20465;-63
2024/04/04 09:16:37;;;;;;;0.30;0.30;;;15.60;99.90;;;;;;4899566;29;20429;-63
2024/04/04 09:19:09;;;;;;;0.30;0.30;;;15.70;99.90;;;;;;4881667;29;20515;-63
2024/04/04 09:21:36;;;;;;;0.30;0.30;;;15.60;99.90;;;;;;4881691;29;20510;-62
2024/04/04 09:24:04;;;;;;;0.30;0.30;;;15.60;99.90;;;;;;4881242;29;20390;-61
2024/04/04 09:26:30;;;;;;;0.30;0.30;;;15.60;99.90;;;;;;4880591;29;20488;-62
2024/04/04 09:28:57;;;;;;;0.30;0.30;;;15.60;99.90;;;;;;4892360;29;20865;-61
2024/04/04 09:31:27;;;;;;;0.30;0.30;;;15.60;99.90;;;;;;4899720;29;20423;-63
2024/04/04 09:33:55;;;;;;;0.30;0.30;;;15.70;99.90;;;;;;4899391;29;20923;-62
2024/04/04 09:36:20;;;;;;;0.30;0.30;;;15.70;99.90;;;;;;4899161;29;20439;-62
2024/04/04 09:38:46;;;;;;;0.30;0.30;;;15.80;99.90;;;;;;4899259;29;20968;-63
2024/04/04 09:41:12;;;;;;;0.30;0.20;;;15.90;99.90;;;;;;4898112;29;20185;-62
2024/04/04 09:43:37;;;;;;;0.30;0.20;;;15.90;99.90;;;;;;4881238;29;20190;-62
2024/04/04 09:46:03;;;;;;;0.30;0.30;;;16.00;99.90;;;;;;4880378;29;20274;-62
2024/04/04 09:48:29;;;;;;;0.30;0.30;;;16.00;99.90;;;;;;4881187;29;20201;-62
2024/04/04 09:50:57;;;;;;;0.30;0.20;;;16.00;99.90;;;;;;4881062;29;20540;-62
2024/04/04 09:53:23;;;;;;;0.40;0.40;;;16.00;99.90;;;;;;4880844;29;20172;-64
2024/04/04 09:55:50;;;;;;;0.30;0.30;;;16.00;99.90;;;;;;4882671;29;20502;-62
2024/04/04 09:58:16;;;;;;;0.30;0.30;;;16.10;99.90;;;;;;4899061;29;20459;-61
2024/04/04 10:00:41;;;;;;;0.33;0.33;;;16.20;99.90;;;;;;4904327;29;20769;-61
2024/04/04 10:03:12;;;;;;;0.30;0.30;;;16.20;99.90;;;;;;4900301;29;20549;-61
2024/04/04 10:05:38;;;;;;;0.40;0.40;;;16.30;99.90;;;;;;4887936;29;20217;-62
2024/04/04 10:08:11;;;;;;;0.30;0.30;;;16.30;99.90;;;;;;4894529;29;20398;-63
2024/04/04 10:10:38;;;;;;;0.30;0.27;;;16.30;99.90;;;;;;4879954;29;20453;-60
2024/04/04 10:13:08;;;;;;;0.30;0.30;;;16.30;99.90;;;;;;4892343;29;20430;-63
2024/04/04 10:15:52;;;;;;;0.30;0.20;;;16.20;99.90;;;;;;4888301;29;20445;-61
2024/04/04 10:18:19;;;;;;;0.30;0.30;;;16.10;99.90;;;;;;4884525;29;20790;-62
2024/04/04 10:20:52;;;;;;;0.30;0.30;;;16.00;99.90;;;;;;4879572;29;20427;-62
2024/04/04 10:23:27;;;;;;;0.30;0.20;;;16.00;99.90;;;;;;4873866;29;20954;-62
2024/04/04 10:26:03;;;;;;;0.30;0.30;;;15.90;99.90;;;;;;4897517;29;20479;-61
2024/04/04 10:28:29;;;;;;;0.30;0.20;;;15.80;99.90;;;;;;4896872;29;20488;-62
2024/04/04 10:30:58;;;;;;;0.30;0.30;;;15.70;99.90;;;;;;4875732;29;20831;-62
2024/04/04 10:33:23;;;;;;;0.30;0.30;;;15.60;99.90;;;;;;4879664;29;20333;-62
2024/04/04 10:36:01;;;;;;;0.30;0.30;;;15.60;99.90;;;;;;4879405;29;20935;-62
2024/04/04 10:38:26;;;;;;;0.30;0.30;;;15.70;99.90;;;;;;4879522;29;20219;-63
2024/04/04 10:40:55;;;;;;;0.30;0.20;;;15.70;99.90;;;;;;4880430;29;20775;-61
2024/04/04 10:43:21;;;;;;;0.30;0.30;;;15.80;99.90;;;;;;4879650;29;20186;-62
2024/04/04 10:45:47;;;;;;;0.30;0.30;;;15.70;99.90;;;;;;4883654;29;20983;-62
2024/04/04 10:48:12;;;;;;;0.30;0.30;;;15.70;99.90;;;;;;4891087;29;20518;-61
2024/04/04 10:50:38;;;;;;;0.30;0.30;;;15.80;99.90;;;;;;4898550;29;20540;-61
2024/04/04 10:53:04;;;;;;;0.30;0.30;;;15.80;99.90;;;;;;4897957;29;20204;-65
2024/04/04 10:55:31;;;;;;;0.30;0.30;;;15.80;99.90;;;;;;4885433;29;20175;-61
2024/04/04 10:57:57;;;;;;;0.30;0.30;;;15.90;99.90;;;;;;4880557;29;20435;-62
2024/04/04 11:00:28;;;;;;;0.30;0.30;;;16.00;99.90;;;;;;4884952;29;20983;-61
2024/04/04 11:02:54;;;;;;;0.30;0.30;;;16.10;99.90;;;;;;4880017;29;20724;-62
2024/04/04 11:05:20;;;;;;;0.30;0.30;;;16.10;99.90;;;;;;4891433;29;20431;-62
2024/04/04 11:07:46;;;;;;;0.30;0.20;;;16.10;99.90;;;;;;4888248;29;20896;-62
2024/04/04 11:10:17;;;;;;;0.30;0.30;;;16.10;99.90;;;;;;4882173;29;20442;-61
2024/04/04 11:12:44;;;;;;;0.30;0.20;;;16.20;99.90;;;;;;4879565;29;20424;-62
2024/04/04 11:15:13;;;;;;;0.33;0.33;;;16.10;99.90;;;;;;4879197;29;20483;-62
2024/04/04 11:17:41;;;;;;;0.40;0.40;;;16.20;99.90;;;;;;4892220;29;20446;-62
2024/04/04 11:20:16;;;;;;;0.40;0.40;;;16.20;99.90;;;;;;4886618;29;21007;-61
2024/04/04 11:22:43;;;;;;;0.50;0.50;;;16.20;99.90;;;;;;4878037;29;20406;-60
2024/04/04 11:25:10;;;;;;;0.30;0.20;;;16.30;99.90;;;;;;4882646;29;20905;-62
2024/04/04 11:27:37;;;;;;;0.30;0.30;;;16.30;99.90;;;;;;4884130;29;20823;-62
2024/04/04 11:30:07;;;;;;;0.30;0.20;;;16.30;99.90;;;;;;4878993;29;20425;-62
2024/04/04 11:32:33;;;;;;;0.40;0.40;;;16.30;99.90;;;;;;4883172;29;20506;-61
2024/04/04 11:34:59;;;;;;;0.30;0.20;;;16.40;99.90;;;;;;4896925;29;20517;-62
2024/04/04 11:37:25;;;;;;;0.30;0.30;;;16.50;99.90;;;;;;4897464;29;20490;-62
2024/04/04 11:39:52;;;;;;;0.30;0.20;;;16.60;99.90;;;;;;4893311;29;20203;-62
2024/04/04 11:42:18;;;;;;;0.30;0.30;;;16.50;99.90;;;;;;4897372;29;20936;-62
2024/04/04 11:44:44;;;;;;;0.30;0.30;;;16.50;99.90;;;;;;4897157;29;20450;-63
2024/04/04 11:47:13;;;;;;;0.30;0.30;;;16.50;99.90;;;;;;4881196;29;20446;-62
2024/04/04 11:49:39;;;;;;;0.30;0.30;;;16.50;99.90;;;;;;4883449;29;20179;-62
2024/04/04 11:52:05;;;;;;;0.30;0.30;;;16.40;99.90;;;;;;4884535;29;20820;-61
2024/04/04 11:54:31;;;;;;;0.30;0.30;;;16.40;99.90;;;;;;4887413;29;20952;-63
2024/04/04 11:56:56;;;;;;;0.30;0.30;;;16.30;99.90;;;;;;4886420;29;20441;-62
2024/04/04 11:59:24;;;;;;;0.30;0.30;;;16.20;99.90;;;;;;4887043;29;20211;-62
2024/04/04 12:01:50;;;;;;;0.40;0.40;;;16.20;99.90;;;;;;4896266;29;20179;-62
2024/04/04 12:04:16;;;;;;;0.30;0.30;;;16.10;99.90;;;;;;4897439;29;20943;-61
2024/04/04 12:06:41;;;;;;;0.30;0.20;;;16.20;99.90;;;;;;4896713;29;20480;-64
2024/04/04 12:09:09;;;;;;;0.30;0.20;;;16.20;99.90;;;;;;4877325;29;20199;-61
2024/04/04 12:11:38;;;;;;;0.30;0.30;;;16.30;99.90;;;;;;4893555;29;20209;-62
2024/04/04 12:14:04;;;;;;;0.30;0.30;;;16.40;99.90;;;;;;4897543;29;20415;-61
2024/04/04 12:16:32;;;;;;;0.30;0.30;;;16.40;99.90;;;;;;4885940;29;20443;-62
2024/04/04 12:21:45;;;;;;;0.30;0.20;;;16.50;99.90;;;;;;4881456;29;20462;-62
2024/04/04 12:24:12;;;;;;;0.30;0.30;;;16.50;99.90;;;;;;4882647;29;20427;-61
2024/04/04 12:26:39;;;;;;;0.30;0.30;;;16.50;99.90;;;;;;4882131;29;20487;-62
2024/04/04 12:29:04;;;;;;;0.30;0.30;;;16.50;99.90;;;;;;4881811;29;20423;-62
2024/04/04 12:31:30;;;;;;;0.30;0.20;;;16.40;99.90;;;;;;4892445;29;20419;-62
2024/04/04 12:33:56;;;;;;;0.30;0.30;;;16.40;99.90;;;;;;4880632;29;20482;-63
2024/04/04 12:36:22;;;;;;;0.30;0.30;;;16.40;99.90;;;;;;4881550;29;20425;-63
2024/04/04 12:38:47;;;;;;;0.30;0.30;;;16.40;99.90;;;;;;4882175;29;20802;-63
2024/04/04 12:41:13;;;;;;;0.30;0.20;;;16.40;99.90;;;;;;4889062;29;20179;-65
2024/04/04 12:43:39;;;;;;;0.30;0.30;;;16.30;99.90;;;;;;4900569;29;20245;-62
2024/04/04 12:46:05;;;;;;;0.50;0.50;;;16.30;99.90;;;;;;4899561;29;20210;-63
2024/04/04 12:48:31;;;;;;;0.30;0.30;;;16.30;99.90;;;;;;4899759;29;20266;-63
2024/04/04 12:50:58;;;;;;;0.30;0.20;;;16.30;99.90;;;;;;4899861;29;20419;-64
2024/04/04 12:53:24;;;;;;;0.30;0.20;;;16.20;99.90;;;;;;4892052;29;20922;-64
2024/04/04 12:55:50;;;;;;;0.30;0.20;;;16.10;99.90;;;;;;4880190;29;20407;-63
2024/04/04 12:58:16;;;;;;;0.30;0.20;;;16.00;99.90;;;;;;4880636;29;20423;-62
2024/04/04 13:00:42;;;;;;;0.30;0.30;;;16.00;99.90;;;;;;4880291;29;20419;-63
2024/04/04 13:03:07;;;;;;;0.30;0.30;;;16.00;99.90;;;;;;4880396;29;20204;-63
2024/04/04 13:05:33;;;;;;;0.30;0.30;;;16.00;99.90;;;;;;4880396;29;20428;-63
2024/04/04 13:07:58;;;;;;;0.30;0.30;;;16.00;99.90;;;;;;4881203;29;20656;-62
2024/04/04 13:10:24;;;;;;;0.30;0.30;;;15.90;99.90;;;;;;4878846;29;20664;-63
2024/04/04 13:12:49;;;;;;;0.30;0.30;;;16.00;99.90;;;;;;4879593;29;20187;-64
2024/04/04 13:15:15;;;;;;;0.30;0.30;;;15.90;99.90;;;;;;4879116;29;20214;-63
2024/04/04 13:17:41;;;;;;;0.30;0.30;;;16.00;99.90;;;;;;4879365;29;20701;-63
2024/04/04 13:20:10;;;;;;;0.30;0.30;;;16.00;99.90;;;;;;4878351;29;20629;-65
2024/04/04 13:22:38;;;;;;;0.40;0.40;;;16.00;99.90;;;;;;4880292;29;20414;-63
2024/04/04 13:25:05;;;;;;;0.30;0.30;;;16.10;99.90;;;;;;4880192;29;20424;-62
2024/04/04 13:27:31;;;;;;;0.30;0.30;;;16.10;99.90;;;;;;4881126;29;20797;-63
2024/04/04 13:29:57;;;;;;;0.30;0.30;;;16.10;99.90;;;;;;4879523;29;20431;-65
2024/04/04 13:32:23;;;;;;;0.30;0.30;;;16.10;99.90;;;;;;4879932;29;20427;-62
2024/04/04 13:34:49;;;;;;;0.30;0.30;;;16.10;99.90;;;;;;4880603;29;20748;-62
2024/04/04 13:37:15;;;;;;;0.30;0.30;;;16.10;99.90;;;;;;4880918;29;20289;-62
2024/04/04 13:39:41;;;;;;;0.30;0.20;;;16.10;99.90;;;;;;4880474;29;20214;-62
2024/04/04 13:42:07;;;;;;;0.30;0.30;;;16.00;99.90;;;;;;4880739;29;20444;-62
2024/04/04 13:44:33;;;;;;;0.30;0.30;;;16.00;99.90;;;;;;4880571;29;20440;-63
2024/04/04 13:47:01;;;;;;;0.30;0.30;;;16.00;99.90;;;;;;4880523;29;20525;-63
2024/04/04 13:49:27;;;;;;;0.30;0.20;;;16.10;99.90;;;;;;4880646;29;20292;-63
2024/04/04 13:51:54;;;;;;;0.30;0.30;;;16.10;99.90;;;;;;4880579;29;20913;-62
2024/04/04 13:54:20;;;;;;;0.30;0.30;;;16.10;99.90;;;;;;4895129;29;20422;-62
2024/04/04 13:56:46;;;;;;;0.30;0.30;;;16.10;99.90;;;;;;4898685;29;20963;-62
2024/04/04 13:59:12;;;;;;;0.30;0.30;;;16.10;99.90;;;;;;4898907;29;20248;-62
2024/04/04 14:01:37;;;;;;;0.30;0.30;;;16.20;99.90;;;;;;4898863;29;20433;-61
2024/04/04 14:04:03;;;;;;;0.30;0.30;;;16.20;99.90;;;;;;4899182;29;20174;-62
2024/04/04 14:06:29;;;;;;;0.30;0.30;;;16.20;99.90;;;;;;4898310;29;20234;-63
2024/04/04 14:08:55;;;;;;;0.30;0.30;;;16.20;99.90;;;;;;4898856;29;20186;-62
2024/04/04 14:11:24;;;;;;;0.30;0.20;;;16.30;99.90;;;;;;4897652;29;20426;-63
2024/04/04 14:13:51;;;;;;;0.30;0.30;;;16.30;99.90;;;;;;4898629;29;20657;-63
2024/04/04 14:16:17;;;;;;;0.30;0.30;;;16.20;99.90;;;;;;4898189;29;20514;-62
2024/04/04 14:18:43;;;;;;;0.30;0.20;;;16.30;99.90;;;;;;4898798;29;20984;-62
2024/04/04 14:21:08;;;;;;;0.30;0.20;;;16.30;99.90;;;;;;4898632;29;20174;-63
2024/04/04 14:23:34;;;;;;;0.30;0.30;;;16.40;99.90;;;;;;4897321;29;20179;-62
2024/04/04 14:26:00;;;;;;;0.30;0.30;;;16.50;99.90;;;;;;4898058;29;20407;-64
2024/04/04 14:28:25;;;;;;;0.30;0.30;;;16.50;99.90;;;;;;4898285;29;20196;-63
2024/04/04 14:30:51;;;;;;;0.30;0.20;;;16.50;99.90;;;;;;4898326;29;20918;-62
2024/04/04 14:33:17;;;;;;;0.30;0.30;;;16.60;99.90;;;;;;4898618;29;20183;-62
2024/04/04 14:35:42;;;;;;;0.30;0.30;;;16.70;99.90;;;;;;4897936;29;20699;-63
2024/04/04 14:38:08;;;;;;;0.33;0.33;;;16.70;99.90;;;;;;4898276;29;20298;-62
2024/04/04 14:40:34;;;;;;;0.30;0.30;;;16.70;99.90;;;;;;4890938;29;20180;-63
2024/04/04 14:43:00;;;;;;;0.30;0.30;;;16.80;99.90;;;;;;4898345;29;20179;-63
2024/04/04 14:45:26;;;;;;;0.40;0.40;;;16.80;99.90;;;;;;4883484;29;20409;-62
2024/04/04 14:47:53;;;;;;;0.30;0.20;;;16.90;99.90;;;;;;4879743;29;20873;-62
2024/04/04 14:50:19;;;;;;;0.30;0.30;;;16.90;99.90;;;;;;4879512;29;20262;-62
2024/04/04 14:52:45;;;;;;;0.30;0.30;;;16.90;99.90;;;;;;4881909;29;20418;-63
2024/04/04 14:55:11;;;;;;;0.30;0.30;;;16.80;99.90;;;;;;4897670;29;20183;-63
2024/04/04 14:57:37;;;;;;;0.30;0.30;;;16.90;99.90;;;;;;4897879;29;20445;-62
2024/04/04 15:00:03;;;;;;;0.30;0.30;;;17.00;99.90;;;;;;4897964;29;20253;-62
2024/04/04 15:02:28;;;;;;;0.30;0.20;;;17.00;99.90;;;;;;4898118;29;20218;-62
2024/04/04 15:04:54;;;;;;;0.30;0.30;;;17.00;99.90;;;;;;4897659;29;20378;-62
2024/04/04 15:07:23;;;;;;;0.30;0.30;;;16.90;99.90;;;;;;4897606;29;20210;-62
2024/04/04 15:09:49;;;;;;;0.30;0.30;;;16.90;99.90;;;;;;4898031;29;20183;-63
2024/04/04 15:12:14;;;;;;;0.40;0.40;;;16.90;99.90;;;;;;4897726;29;20420;-64
2024/04/04 15:14:40;;;;;;;1.77;0.50;;;16.90;99.90;;;;;;4897389;29;20214;-63
2024/04/04 15:17:05;;;;;;;0.37;0.37;;;16.90;99.90;;;;;;4897805;29;20568;-62
2024/04/04 15:19:31;;;;;;;0.30;0.20;;;16.90;99.90;;;;;;4897653;29;20665;-62
2024/04/04 15:21:57;;;;;;;0.30;0.30;;;16.90;99.90;;;;;;4897927;29;20179;-63
2024/04/04 15:24:22;;;;;;;0.30;0.30;;;16.90;99.90;;;;;;4896594;29;20253;-62
2024/04/04 15:26:48;;;;;;;0.30;0.30;;;16.90;99.90;;;;;;4897324;29;20187;-62
2024/04/04 15:29:15;;;;;;;0.30;0.30;;;16.90;99.90;;;;;;4897635;29;20187;-62
2024/04/04 15:31:42;;;;;;;0.30;0.20;;;16.90;99.90;;;;;;4897873;29;20258;-62
2024/04/04 15:34:09;;;;;;;0.30;0.30;;;17.00;99.90;;;;;;4897652;29;20498;-62
2024/04/04 15:36:35;;;;;;;0.30;0.30;;;17.00;99.90;;;;;;4897272;29;20776;-62
2024/04/04 15:39:01;;;;;;;0.30;0.30;;;17.00;99.90;;;;;;4896216;29;20516;-63
2024/04/04 15:41:27;;;;;;;0.30;0.20;;;17.00;99.90;;;;;;4897539;29;20486;-61
2024/04/04 15:43:53;;;;;;;0.30;0.30;;;16.90;99.90;;;;;;4897616;29;20854;-61
2024/04/04 15:46:18;;;;;;;0.30;0.30;;;16.90;99.90;;;;;;4897038;29;20195;-61
2024/04/04 15:48:45;;;;;;;0.30;0.30;;;16.90;99.90;;;;;;4896334;29;20238;-62
2024/04/04 15:51:10;;;;;;;0.30;0.30;;;16.90;99.90;;;;;;4897451;29;20174;-61
2024/04/04 15:53:38;;;;;;;0.40;0.40;;;16.90;99.90;;;;;;4897398;29;20413;-61
2024/04/04 15:56:05;;;;;;;0.30;0.30;;;16.70;99.90;;;;;;4897747;29;20199;-62
2024/04/04 15:58:31;;;;;;;0.30;0.30;;;16.50;99.90;;;;;;4901124;29;20925;-61
2024/04/04 16:00:56;;;;;;;0.30;0.20;;;16.20;99.90;;;;;;4900894;29;20418;-61
2024/04/04 16:03:22;;;;;;;0.30;0.30;;;16.00;99.90;;;;;;4901102;29;20652;-62
2024/04/04 16:05:47;;;;;;;0.30;0.30;;;15.80;99.90;;;;;;4900752;29;20203;-61
2024/04/04 16:08:13;;;;;;;0.30;0.30;;;15.70;99.90;;;;;;4900880;29;20253;-60
2024/04/04 16:10:39;;;;;;;0.30;0.30;;;15.60;99.90;;;;;;4900952;29;20171;-61
2024/04/04 16:13:04;;;;;;;0.30;0.20;;;15.50;99.90;;;;;;4901008;29;20625;-61
2024/04/04 16:15:30;;;;;;;0.30;0.30;;;15.50;99.90;;;;;;4900689;29;20181;-61
2024/04/04 16:17:55;;;;;;;0.30;0.30;;;15.50;99.90;;;;;;4888710;29;20190;-60
2024/04/04 16:20:21;;;;;;;0.30;0.30;;;15.50;99.90;;;;;;4877073;29;20214;-60
2024/04/04 16:22:48;;;;;;;0.30;0.30;;;15.60;99.90;;;;;;4880858;29;20611;-61
2024/04/04 16:25:13;;;;;;;0.60;0.60;;;15.70;99.90;;;;;;4881929;29;20182;-62
2024/04/04 16:27:39;;;;;;;0.30;0.30;;;15.90;99.90;;;;;;4882157;29;20499;-62
2024/04/04 16:30:05;;;;;;;0.30;0.20;;;16.10;99.90;;;;;;4883319;29;20251;-62
2024/04/04 16:32:31;;;;;;;0.30;0.30;;;16.30;99.90;;;;;;4888998;29;20523;-61
2024/04/04 16:34:57;;;;;;;0.30;0.30;;;16.40;99.90;;;;;;4885877;29;20927;-62
2024/04/04 16:37:23;;;;;;;0.30;0.20;;;16.50;99.90;;;;;;4899044;29;20444;-61
2024/04/04 16:39:49;;;;;;;0.30;0.30;;;16.60;99.90;;;;;;4900145;29;20528;-63
2024/04/04 16:42:15;;;;;;;0.30;0.30;;;16.60;99.90;;;;;;4888894;29;20175;-62
2024/04/04 16:44:40;;;;;;;0.30;0.30;;;16.50;99.90;;;;;;4881577;29;20409;-62
2024/04/04 16:47:06;;;;;;;0.30;0.30;;;16.40;99.90;;;;;;4881887;29;20204;-63
2024/04/04 16:49:32;;;;;;;0.40;0.40;;;16.30;99.90;;;;;;4881853;29;20205;-63
2024/04/04 16:51:57;;;;;;;0.30;0.30;;;16.20;99.90;;;;;;4883823;29;20185;-64